createdAt,value
2022-09-23T00:01:50.760Z,80.44
2022-09-23T00:05:29.070Z,80.64
2022-09-23T00:09:04.368Z,80.76
2022-09-23T00:12:43.333Z,81.13
2022-09-23T00:16:26.439Z,81.35
2022-09-23T00:19:55.742Z,81.25
2022-09-23T00:23:32.307Z,81.20
2022-09-23T00:27:08.154Z,81.29
2022-09-23T00:30:45.301Z,81.66
2022-09-23T00:34:21.718Z,81.56
2022-09-23T00:37:58.796Z,81.20
2022-09-23T00:41:54.328Z,81.36
2022-09-23T00:45:12.452Z,82.13
2022-09-23T00:48:55.946Z,81.79
2022-09-23T00:52:26.360Z,82.20
2022-09-23T00:56:07.501Z,82.48
2022-09-23T00:59:39.898Z,82.48
2022-09-23T01:03:18.509Z,82.78
2022-09-23T01:06:53.128Z,82.54
2022-09-23T01:10:45.522Z,82.96
2022-09-23T01:14:34.634Z,82.53
2022-09-23T01:18:14.186Z,81.72
2022-09-23T01:21:45.514Z,82.46
2022-09-23T01:25:22.337Z,82.57
2022-09-23T01:28:52.611Z,81.73
2022-09-23T01:32:35.825Z,82.44
2022-09-23T01:36:24.243Z,82.67
2022-09-23T01:39:33.697Z,82.37
2022-09-23T01:43:16.399Z,82.16
2022-09-23T01:46:49.451Z,82.06
2022-09-23T01:50:54.100Z,81.96
2022-09-23T01:54:11.653Z,82.53
2022-09-23T01:57:46.095Z,82.69
2022-09-23T02:01:19.348Z,82.53
2022-09-23T02:05:09.841Z,82.39
2022-09-23T02:08:31.759Z,82.48
2022-09-23T02:12:09.150Z,82.47
2022-09-23T02:15:45.202Z,82.48
2022-09-23T02:19:18.863Z,83.12
2022-09-23T02:23:03.440Z,82.90
2022-09-23T02:26:29.660Z,83.34
2022-09-23T02:30:12.968Z,83.17
2022-09-23T02:37:57.129Z,82.65
2022-09-23T02:41:02.520Z,83.37
2022-09-23T02:44:33.568Z,82.87
2022-09-23T02:48:18.968Z,82.43
2022-09-23T02:51:49.219Z,83.50
2022-09-23T02:55:25.653Z,83.53
2022-09-23T02:59:01.142Z,83.10
2022-09-23T03:03:01.650Z,83.52
2022-09-23T03:06:40.246Z,83.54
2022-09-23T03:10:25.131Z,83.44
2022-09-23T03:13:55.144Z,83.50
2022-09-23T03:17:20.280Z,83.73
2022-09-23T03:20:49.638Z,84.30
2022-09-23T03:24:25.012Z,84.22
2022-09-23T03:28:01.063Z,83.81
2022-09-23T03:31:37.485Z,82.70
2022-09-23T03:35:15.383Z,83.17
2022-09-23T03:42:30.249Z,83.15
2022-09-23T03:46:03.118Z,83.69
2022-09-23T03:49:42.588Z,83.66
2022-09-23T03:53:18.280Z,83.98
2022-09-23T03:56:52.930Z,84.35
2022-09-23T04:00:29.930Z,84.42
2022-09-23T04:04:06.599Z,84.47
2022-09-23T04:07:43.238Z,84.18
2022-09-23T04:11:20.321Z,83.15
2022-09-23T04:14:56.875Z,83.12
2022-09-23T04:18:33.622Z,83.24
2022-09-23T04:22:11.081Z,83.11
2022-09-23T04:25:48.667Z,83.11
2022-09-23T04:29:25.590Z,82.59
2022-09-23T04:33:03.464Z,82.59
2022-09-23T04:36:40.308Z,82.73
2022-09-23T04:40:14.631Z,82.33
2022-09-23T04:43:51.417Z,82.78
2022-09-23T04:47:28.425Z,83.08
2022-09-23T04:51:12.309Z,82.85
2022-09-23T04:54:41.854Z,82.85
2022-09-23T04:58:18.812Z,83.20
2022-09-23T05:01:55.853Z,82.98
2022-09-23T05:05:32.380Z,82.85
2022-09-23T05:09:09.453Z,83.01
2022-09-23T05:12:45.733Z,82.71
2022-09-23T05:16:23.599Z,82.79
2022-09-23T05:19:59.819Z,82.83
2022-09-23T05:23:36.595Z,83.19
2022-09-23T05:27:12.923Z,83.30
2022-09-23T05:30:49.567Z,83.46
2022-09-23T05:34:26.843Z,82.76
2022-09-23T05:38:03.464Z,82.07
2022-09-23T05:41:42.312Z,82.28
2022-09-23T05:45:20.917Z,81.95
2022-09-23T05:48:57.616Z,82.00
2022-09-23T05:52:31.619Z,81.07
2022-09-23T05:56:08.285Z,80.92
2022-09-23T05:59:47.929Z,80.55
2022-09-23T06:03:21.197Z,80.04
2022-09-23T06:10:39.212Z,78.54
2022-09-23T06:14:14.884Z,78.05
2022-09-23T06:17:50.814Z,77.91
2022-09-23T06:21:24.773Z,76.32
2022-09-23T06:25:01.397Z,75.41
2022-09-23T06:28:40.604Z,75.35
2022-09-23T06:32:15.044Z,75.71
2022-09-23T06:36:00.044Z,76.32
2022-09-23T06:39:30.114Z,75.89
2022-09-23T06:43:05.539Z,75.13
2022-09-23T06:46:42.681Z,75.66
2022-09-23T06:50:19.117Z,76.23
2022-09-23T06:53:56.509Z,76.50
2022-09-23T06:57:33.659Z,76.84
2022-09-23T07:01:18.244Z,76.50
2022-09-23T07:04:46.093Z,76.57
2022-09-23T07:08:24.022Z,75.13
2022-09-23T07:11:59.810Z,74.30
2022-09-23T07:15:36.835Z,73.33
2022-09-23T07:19:13.761Z,72.23
2022-09-23T07:22:52.497Z,71.66
2022-09-23T07:26:27.052Z,70.81
2022-09-23T07:30:04.235Z,70.92
2022-09-23T07:33:44.447Z,71.97
2022-09-23T07:37:18.924Z,72.69
2022-09-23T07:40:54.207Z,71.65
2022-09-23T07:44:32.141Z,71.15
2022-09-23T07:51:48.948Z,72.12
2022-09-23T07:55:21.425Z,72.49
2022-09-23T07:59:01.943Z,73.13
2022-09-23T08:02:35.423Z,73.15
2022-09-23T08:06:13.726Z,73.62
2022-09-23T08:09:48.725Z,73.78
2022-09-23T08:13:25.329Z,74.31
2022-09-23T08:17:02.205Z,75.06
2022-09-23T08:20:47.138Z,75.08
2022-09-23T08:24:18.721Z,75.93
2022-09-23T08:27:52.624Z,76.15
2022-09-23T08:31:30.005Z,76.60
2022-09-23T08:35:06.712Z,76.37
2022-09-23T08:42:30.337Z,76.29
2022-09-23T08:46:02.999Z,76.75
2022-09-23T08:49:41.765Z,76.46
2022-09-23T08:53:35.882Z,76.24
2022-09-23T08:56:52.474Z,76.41
2022-09-23T09:00:33.431Z,76.31
2022-09-23T09:04:03.197Z,75.02
2022-09-23T09:07:40.743Z,75.59
2022-09-23T09:11:15.638Z,75.13
2022-09-23T09:15:08.141Z,75.39
2022-09-23T09:18:31.480Z,75.28
2022-09-23T09:22:12.230Z,75.49
2022-09-23T09:26:01.573Z,75.44
2022-09-23T09:29:41.579Z,75.38
2022-09-23T09:33:07.021Z,74.64
2022-09-23T09:36:50.215Z,74.30
2022-09-23T09:40:20.549Z,74.72
2022-09-23T09:43:57.898Z,74.06
2022-09-23T09:47:53.261Z,74.08
2022-09-23T09:51:27.811Z,73.66
2022-09-23T09:54:43.910Z,73.74
2022-09-23T09:58:19.901Z,72.85
2022-09-23T10:02:24.884Z,71.90
2022-09-23T10:05:45.074Z,71.50
2022-09-23T10:09:19.573Z,71.39
2022-09-23T10:13:21.203Z,71.25
2022-09-23T10:17:24.628Z,71.11
2022-09-23T10:21:17.868Z,70.70
2022-09-23T10:24:39.154Z,70.80
2022-09-23T10:28:38.955Z,70.91
2022-09-23T10:31:47.776Z,71.05
2022-09-23T10:35:26.739Z,70.85
2022-09-23T10:39:22.532Z,70.87
2022-09-23T10:43:37.290Z,71.16
2022-09-23T10:46:39.799Z,70.54
2022-09-23T10:50:47.116Z,70.96
2022-09-23T10:53:49.752Z,70.93
2022-09-23T10:57:44.986Z,70.64
2022-09-23T11:01:44.984Z,70.66
2022-09-23T11:05:11.793Z,71.05
2022-09-23T11:08:44.047Z,71.07
2022-09-23T11:12:47.326Z,71.37
2022-09-23T11:16:14.453Z,71.37
2022-09-23T11:19:34.252Z,71.30
2022-09-23T11:23:19.066Z,70.98
2022-09-23T11:27:12.441Z,71.09
2022-09-23T11:30:20.635Z,70.93
2022-09-23T11:33:58.128Z,70.76
2022-09-23T11:37:36.824Z,71.46
2022-09-23T11:41:36.660Z,71.66
2022-09-23T11:44:58.743Z,71.67
2022-09-23T11:48:37.716Z,71.28
2022-09-23T11:52:11.112Z,71.28
2022-09-23T11:55:57.119Z,70.88
2022-09-23T11:59:39.395Z,71.00
2022-09-23T12:03:18.318Z,71.32
2022-09-23T12:06:41.599Z,71.43
2022-09-23T12:10:08.928Z,72.15
2022-09-23T12:14:12.536Z,72.54
2022-09-23T12:17:27.701Z,73.13
2022-09-23T12:21:53.049Z,72.86
2022-09-23T12:25:33.624Z,72.75
2022-09-23T12:28:50.976Z,71.21
2022-09-23T12:32:25.061Z,71.07
2022-09-23T12:36:10.197Z,70.04
2022-09-23T12:39:40.054Z,69.47
2022-09-23T12:43:35.012Z,68.82
2022-09-23T12:47:48.237Z,68.13
2022-09-23T12:51:27.203Z,68.16
2022-09-23T12:55:33.649Z,68.82
2022-09-23T12:58:57.036Z,69.33
2022-09-23T13:02:37.691Z,69.24
2022-09-23T13:06:17.171Z,70.65
2022-09-23T13:09:31.997Z,71.32
2022-09-23T13:13:07.441Z,71.58
2022-09-23T13:16:45.762Z,71.37
2022-09-23T13:20:22.362Z,71.60
2022-09-23T13:24:18.834Z,72.17
2022-09-23T13:27:34.331Z,72.40
2022-09-23T13:31:17.330Z,73.02
2022-09-23T13:34:58.950Z,72.85
2022-09-23T13:38:26.411Z,72.79
2022-09-23T13:42:06.039Z,72.48
2022-09-23T13:45:43.328Z,72.48
2022-09-23T13:49:37.549Z,72.24
2022-09-23T13:53:01.540Z,72.48
2022-09-23T13:56:30.334Z,72.59
2022-09-23T14:00:21.304Z,71.79
2022-09-23T14:03:41.154Z,71.01
2022-09-23T14:07:19.693Z,71.14
2022-09-23T14:10:55.846Z,71.14
2022-09-23T14:14:31.831Z,70.99
2022-09-23T14:18:08.750Z,70.26
2022-09-23T14:21:49.460Z,70.31
2022-09-23T14:25:21.930Z,70.14
2022-09-23T14:28:58.471Z,69.36
2022-09-23T14:32:35.603Z,67.76
2022-09-23T14:36:35.229Z,67.71
2022-09-23T14:39:54.539Z,68.29
2022-09-23T14:43:28.671Z,68.92
2022-09-23T14:47:02.201Z,69.52
2022-09-23T14:50:43.676Z,70.09
2022-09-23T14:54:40.692Z,69.57
2022-09-23T15:08:38.225Z,67.68
2022-09-23T15:12:31.993Z,66.71
2022-09-23T15:15:33.683Z,66.33
2022-09-23T15:19:18.566Z,66.97
2022-09-23T15:22:48.725Z,66.62
2022-09-23T15:26:23.297Z,66.85
2022-09-23T15:30:15.710Z,66.09
2022-09-23T15:33:35.947Z,65.51
2022-09-23T15:37:15.366Z,65.83
2022-09-23T15:40:49.587Z,66.56
2022-09-23T15:44:29.915Z,65.73
2022-09-23T15:48:32.080Z,65.43
2022-09-23T15:51:39.713Z,66.15
2022-09-23T15:55:23.805Z,66.44
2022-09-23T15:58:53.617Z,66.67
2022-09-23T16:02:32.784Z,66.91
2022-09-23T16:06:13.580Z,67.03
2022-09-23T16:09:43.615Z,67.37
2022-09-23T16:13:20.324Z,67.76
2022-09-23T16:16:57.848Z,68.14
2022-09-23T16:20:38.103Z,68.46
2022-09-23T16:24:19.011Z,68.97
2022-09-23T16:27:50.260Z,69.36
2022-09-23T16:31:26.968Z,69.75
2022-09-23T16:35:01.316Z,69.70
2022-09-23T16:39:01.373Z,69.82
2022-09-23T16:42:14.783Z,70.09
2022-09-23T16:45:51.662Z,70.32
2022-09-23T16:49:28.896Z,70.69
2022-09-23T16:53:05.112Z,70.87
2022-09-23T16:56:44.556Z,70.99
2022-09-23T17:00:37.634Z,71.30
2022-09-23T17:03:55.421Z,71.71
2022-09-23T17:07:32.543Z,72.03
2022-09-23T17:11:11.097Z,72.60
2022-09-23T17:14:45.940Z,72.47
2022-09-23T17:18:22.903Z,72.62
2022-09-23T17:21:59.685Z,72.42
2022-09-23T17:25:36.312Z,72.27
2022-09-23T17:29:13.925Z,72.29
2022-09-23T17:32:49.872Z,72.44
2022-09-23T17:36:27.479Z,72.95
2022-09-23T17:40:06.182Z,72.85
2022-09-23T17:43:40.887Z,73.22
2022-09-23T17:47:16.974Z,73.33
2022-09-23T17:51:03.412Z,73.57
2022-09-23T17:54:32.190Z,73.77
2022-09-23T17:58:07.331Z,73.95
2022-09-23T18:01:44.214Z,73.91
2022-09-23T18:05:22.374Z,73.91
2022-09-23T18:09:01.467Z,74.13
2022-09-23T18:12:34.583Z,74.28
2022-09-23T18:16:11.726Z,74.23
2022-09-23T18:19:49.552Z,74.39
2022-09-23T18:23:28.043Z,74.60
2022-09-23T18:27:02.170Z,74.99
2022-09-23T18:30:38.539Z,75.20
2022-09-23T18:34:16.887Z,75.43
2022-09-23T18:37:52.199Z,75.63
2022-09-23T18:41:29.197Z,76.66
2022-09-23T18:45:05.747Z,77.20
2022-09-23T18:49:23.499Z,77.52
2022-09-23T18:52:41.752Z,78.06
2022-09-23T18:56:21.280Z,78.40
2022-09-23T18:59:55.622Z,78.46
2022-09-23T19:03:56.633Z,78.18
2022-09-23T19:07:32.293Z,78.21
2022-09-23T19:11:12.012Z,78.15
2022-09-23T19:14:45.892Z,78.26
2022-09-23T19:18:22.439Z,78.13
2022-09-23T19:21:59.353Z,78.41
2022-09-23T19:25:37.080Z,78.43
2022-09-23T19:29:19.785Z,78.51
2022-09-23T19:32:49.933Z,78.83
2022-09-23T19:36:47.372Z,78.90
2022-09-23T19:40:03.364Z,79.10
2022-09-23T19:43:39.886Z,78.91
2022-09-23T19:47:17.743Z,78.79
2022-09-23T19:50:53.652Z,79.11
2022-09-23T19:54:30.736Z,79.20
2022-09-23T19:58:07.785Z,79.57
2022-09-23T20:01:44.295Z,79.53
2022-09-23T20:05:23.532Z,79.63
2022-09-23T20:08:59.482Z,79.45
2022-09-23T20:12:34.700Z,79.19
2022-09-23T20:16:12.304Z,79.49
2022-09-23T20:19:47.974Z,79.83
2022-09-23T20:23:25.012Z,79.64
2022-09-23T20:27:13.907Z,79.54
2022-09-23T20:30:39.520Z,79.69
2022-09-23T20:34:15.260Z,79.67
2022-09-23T20:38:28.714Z,80.05
2022-09-23T20:42:07.118Z,80.24
2022-09-23T20:45:50.551Z,80.34
2022-09-23T20:49:19.833Z,80.48
2022-09-23T20:52:56.661Z,80.50
2022-09-23T20:56:32.252Z,80.32
2022-09-23T21:00:09.358Z,80.51
2022-09-23T21:03:48.193Z,80.58
2022-09-23T21:07:24.171Z,80.88
2022-09-23T21:11:02.780Z,80.88
2022-09-23T21:14:36.444Z,80.71
2022-09-23T21:18:16.265Z,80.47
2022-09-23T21:21:49.773Z,80.69
2022-09-23T21:25:28.402Z,80.54
2022-09-23T21:29:05.618Z,81.04
2022-09-23T21:32:40.302Z,81.36
2022-09-23T21:36:16.911Z,81.49
2022-09-23T21:40:12.395Z,81.21
2022-09-23T21:43:34.292Z,81.09
2022-09-23T21:47:07.524Z,81.27
2022-09-23T21:50:44.290Z,81.12
2022-09-23T21:54:20.684Z,81.16
2022-09-23T21:57:57.772Z,80.92
2022-09-23T22:01:38.446Z,80.70
2022-09-23T22:05:11.281Z,80.99
2022-09-23T22:08:50.022Z,80.96
2022-09-23T22:12:25.010Z,81.06
2022-09-23T22:16:06.406Z,81.12
2022-09-23T22:19:45.895Z,81.20
2022-09-23T22:23:15.342Z,80.93
2022-09-23T22:26:52.242Z,81.15
2022-09-23T22:30:47.242Z,81.53
2022-09-23T22:34:06.575Z,81.37
2022-09-23T22:37:43.032Z,81.83
2022-09-23T22:41:22.619Z,82.18
2022-09-23T22:44:56.185Z,82.54
2022-09-23T22:48:33.490Z,82.83
2022-09-23T22:52:11.401Z,82.96
2022-09-23T22:55:57.821Z,82.74
2022-09-23T22:59:23.465Z,82.61
2022-09-23T23:03:01.337Z,83.39
2022-09-23T23:06:37.342Z,83.68
2022-09-23T23:10:14.519Z,83.17
2022-09-23T23:13:51.152Z,82.41
2022-09-23T23:17:27.639Z,82.11
2022-09-23T23:21:14.225Z,82.18
2022-09-23T23:24:40.798Z,82.45
2022-09-23T23:28:17.762Z,82.19
2022-09-23T23:31:54.969Z,82.08
2022-09-23T23:35:31.467Z,82.02
2022-09-23T23:39:08.629Z,81.97
2022-09-23T23:42:47.301Z,81.89
2022-09-23T23:46:26.682Z,81.87
2022-09-23T23:49:58.807Z,81.65
2022-09-23T23:53:38.780Z,81.37
2022-09-23T23:57:12.516Z,81.35
